createdAt,value
2022-10-20T00:00:27.986Z,95231.66
2022-10-20T00:01:29.579Z,95241.34
2022-10-20T00:02:31.181Z,95242.66
2022-10-20T00:03:33.259Z,95243.94
2022-10-20T00:04:35.117Z,95241.16
2022-10-20T00:05:36.666Z,95243.94
2022-10-20T00:06:38.309Z,95237.56
2022-10-20T00:07:39.869Z,95241.34
2022-10-20T00:08:42.335Z,95229.97
2022-10-20T00:09:43.879Z,95243.94
2022-10-20T00:10:58.141Z,95240.19
2022-10-20T00:11:59.694Z,95239.84
2022-10-20T00:13:01.406Z,95234.25
2022-10-20T00:14:04.186Z,95237.56
2022-10-20T00:15:06.122Z,95238.34
2022-10-20T00:16:08.381Z,95236.81
2022-10-20T00:17:09.927Z,95234.59
2022-10-20T00:18:11.434Z,95225.44
2022-10-20T00:19:12.980Z,95241.69
2022-10-20T00:21:23.490Z,95237.38
2022-10-20T00:22:25.058Z,95246.53
2022-10-20T00:23:26.722Z,95239.63
2022-10-20T00:24:28.254Z,95245.22
2022-10-20T00:25:29.813Z,95235.34
2022-10-20T00:26:32.446Z,95243.94
2022-10-20T00:27:33.991Z,95238.34
2022-10-20T00:28:35.899Z,95243.72
2022-10-20T00:29:37.501Z,95238.88
2022-10-20T00:30:39.938Z,95242.44
2022-10-20T00:31:41.521Z,95243.72
2022-10-20T00:32:43.033Z,95244.28
2022-10-20T00:33:46.498Z,95242.00
2022-10-20T00:34:48.024Z,95236.41
2022-10-20T00:35:49.586Z,95234.16
2022-10-20T00:36:51.560Z,95224.28
2022-10-20T00:37:53.169Z,95226.28
2022-10-20T00:39:02.890Z,95232.44
2022-10-20T00:40:04.865Z,95229.31
2022-10-20T00:41:06.844Z,95232.88
2022-10-20T00:42:15.817Z,95231.16
2022-10-20T00:43:17.867Z,95232.34
2022-10-20T00:44:47.647Z,95234.50
2022-10-20T00:45:56.586Z,95218.13
2022-10-20T00:46:58.287Z,95222.63
2022-10-20T00:48:06.741Z,95220.19
2022-10-20T00:49:16.459Z,95218.88
2022-10-20T00:50:29.441Z,95210.28
2022-10-20T00:51:34.069Z,95210.47
2022-10-20T00:52:37.344Z,95214.03
2022-10-20T00:53:39.051Z,95211.44
2022-10-20T00:54:40.719Z,95211.44
2022-10-20T00:55:45.786Z,95211.44
2022-10-20T00:56:49.381Z,95207.91
2022-10-20T00:57:52.252Z,95202.50
2022-10-20T00:58:54.325Z,95205.09
2022-10-20T00:59:55.985Z,95218.53
2022-10-20T01:00:59.749Z,95218.88
2022-10-20T01:02:05.151Z,95218.53
2022-10-20T01:03:13.040Z,95215.75
2022-10-20T01:04:15.625Z,95222.84
2022-10-20T01:05:17.698Z,95219.09
2022-10-20T01:06:22.295Z,95216.50
2022-10-20T01:07:24.333Z,95212.94
2022-10-20T01:08:26.024Z,95221.34
2022-10-20T01:09:28.066Z,95223.59
2022-10-20T01:10:38.358Z,95222.63
2022-10-20T01:11:44.946Z,95232.53
2022-10-20T01:12:46.415Z,95218.00
2022-10-20T01:14:15.569Z,95222.97
2022-10-20T01:15:44.121Z,95225.03
2022-10-20T01:16:51.902Z,95219.63
2022-10-20T01:18:07.102Z,95218.53
2022-10-20T01:19:27.211Z,95215.88
2022-10-20T01:20:49.579Z,95227.81
2022-10-20T01:22:12.863Z,95222.63
2022-10-20T01:23:55.931Z,95230.63
2022-10-20T01:25:34.957Z,95222.22
2022-10-20T01:26:58.283Z,95222.97
2022-10-20T01:28:07.755Z,95214.03
2022-10-20T01:29:26.325Z,95220.69
2022-10-20T01:30:28.158Z,95228.25
2022-10-20T01:31:38.611Z,95228.00
2022-10-20T01:33:08.079Z,95207.25
2022-10-20T01:34:32.530Z,95214.25
2022-10-20T01:35:43.947Z,95214.25
2022-10-20T01:37:28.138Z,95217.78
2022-10-20T01:38:44.070Z,95221.97
2022-10-20T01:39:58.442Z,95222.50
2022-10-20T01:41:11.899Z,95218.97
2022-10-20T01:42:22.787Z,95220.47
2022-10-20T01:43:28.414Z,95222.19
2022-10-20T01:44:32.231Z,95226.47
2022-10-20T01:45:36.890Z,95219.72
2022-10-20T01:46:41.710Z,95220.47
2022-10-20T01:47:45.319Z,95223.47
2022-10-20T01:48:48.047Z,95222.19
2022-10-20T01:49:49.979Z,95224.22
2022-10-20T01:50:52.590Z,95223.47
2022-10-20T01:51:55.917Z,95223.47
2022-10-20T01:52:58.567Z,95228.31
2022-10-20T01:54:00.350Z,95230.16
2022-10-20T01:55:01.849Z,95222.19
2022-10-20T01:56:04.821Z,95224.97
2022-10-20T01:57:30.976Z,95229.41
2022-10-20T01:59:00.248Z,95231.97
2022-10-20T02:00:04.774Z,95231.66
2022-10-20T02:01:41.766Z,95231.44
2022-10-20T02:02:43.237Z,95237.25
2022-10-20T02:03:58.003Z,95235.97
2022-10-20T02:05:11.687Z,95233.50
2022-10-20T02:06:40.981Z,95238.34
2022-10-20T02:07:43.179Z,95231.44
2022-10-20T02:08:58.720Z,95237.06
2022-10-20T02:10:08.662Z,95238.88
2022-10-20T02:11:20.809Z,95235.56
2022-10-20T02:12:29.789Z,95239.09
2022-10-20T02:13:35.924Z,95237.25
2022-10-20T02:14:39.222Z,95241.34
2022-10-20T02:15:45.857Z,95242.44
2022-10-20T02:16:55.693Z,95239.09
2022-10-20T02:18:03.805Z,95247.28
2022-10-20T02:19:09.150Z,95245.03
2022-10-20T02:20:11.411Z,95245.03
2022-10-20T02:21:13.301Z,95242.22
2022-10-20T02:22:16.482Z,95246.53
2022-10-20T02:23:18.485Z,95249.13
2022-10-20T02:24:25.412Z,95251.91
2022-10-20T02:25:29.695Z,95251.91
2022-10-20T02:26:33.169Z,95254.16
2022-10-20T02:27:39.094Z,95246.53
2022-10-20T02:28:45.725Z,95247.81
2022-10-20T02:30:01.560Z,95257.28
2022-10-20T02:31:04.330Z,95251.56
2022-10-20T02:32:07.940Z,95255.16
2022-10-20T02:33:10.242Z,95251.38
2022-10-20T02:34:12.754Z,95243.53
2022-10-20T02:35:17.087Z,95250.41
2022-10-20T02:36:20.594Z,95253.94
2022-10-20T02:37:22.114Z,95245.56
2022-10-20T02:38:23.703Z,95252.66
2022-10-20T02:39:26.282Z,95248.91
2022-10-20T02:40:28.181Z,95257.06
2022-10-20T02:41:31.120Z,95255.78
2022-10-20T02:42:32.652Z,95262.88
2022-10-20T02:43:34.145Z,95251.69
2022-10-20T02:44:35.708Z,95260.09
2022-10-20T02:45:37.246Z,95263.13
2022-10-20T02:46:38.813Z,95269.97
2022-10-20T02:47:40.408Z,95264.38
2022-10-20T02:48:41.993Z,95271.50
2022-10-20T02:49:43.600Z,95269.97
2022-10-20T02:50:45.119Z,95268.47
2022-10-20T02:51:46.651Z,95267.00
2022-10-20T02:52:48.234Z,95269.22
2022-10-20T02:53:50.003Z,95258.59
2022-10-20T02:54:51.537Z,95262.88
2022-10-20T02:55:53.047Z,95261.41
2022-10-20T02:56:55.061Z,95260.31
2022-10-20T02:57:56.596Z,95265.13
2022-10-20T02:58:58.169Z,95270.97
2022-10-20T02:59:59.669Z,95268.72
2022-10-20T03:01:01.697Z,95272.25
2022-10-20T03:02:03.711Z,95273.53
2022-10-20T03:03:05.478Z,95269.97
2022-10-20T03:04:07.040Z,95275.59
2022-10-20T03:05:08.822Z,95277.09
2022-10-20T03:06:12.200Z,95270.72
2022-10-20T03:07:14.444Z,95265.91
2022-10-20T03:08:16.084Z,95265.91
2022-10-20T03:09:17.674Z,95277.84
2022-10-20T03:10:19.858Z,95278.59
2022-10-20T03:11:21.426Z,95278.38
2022-10-20T03:12:22.994Z,95277.09
2022-10-20T03:13:24.598Z,95275.81
2022-10-20T03:14:26.163Z,95280.09
2022-10-20T03:15:27.700Z,95273.19
2022-10-20T03:16:29.593Z,95279.34
2022-10-20T03:17:31.134Z,95287.53
2022-10-20T03:18:32.653Z,95277.84
2022-10-20T03:19:34.210Z,95282.69
2022-10-20T03:20:35.799Z,95288.28
2022-10-20T03:21:37.345Z,95275.59
2022-10-20T03:22:38.932Z,95282.69
2022-10-20T03:23:40.478Z,95277.09
2022-10-20T03:24:42.081Z,95286.03
2022-10-20T03:25:43.637Z,95285.50
2022-10-20T03:26:45.144Z,95290.88
2022-10-20T03:27:46.666Z,95284.72
2022-10-20T03:28:48.213Z,95286.03
2022-10-20T03:29:49.795Z,95289.38
2022-10-20T03:30:51.313Z,95280.97
2022-10-20T03:31:52.906Z,95285.28
2022-10-20T03:32:55.916Z,95285.28
2022-10-20T03:33:57.504Z,95283.97
2022-10-20T03:34:59.051Z,95281.19
2022-10-20T03:36:00.634Z,95280.97
2022-10-20T03:37:02.481Z,95280.97
2022-10-20T03:38:04.011Z,95285.28
2022-10-20T03:39:05.528Z,95284.53
2022-10-20T03:40:07.596Z,95287.31
2022-10-20T03:41:10.076Z,95290.88
2022-10-20T03:42:11.702Z,95288.63
2022-10-20T03:43:15.271Z,95287.09
2022-10-20T03:44:16.955Z,95297.00
2022-10-20T03:45:18.795Z,95299.81
2022-10-20T03:46:20.418Z,95295.72
2022-10-20T03:47:21.922Z,95298.50
2022-10-20T03:48:23.435Z,95296.47
2022-10-20T03:49:24.971Z,95295.72
2022-10-20T03:50:26.719Z,95292.16
2022-10-20T03:51:28.302Z,95303.13
2022-10-20T03:52:29.815Z,95312.81
2022-10-20T03:53:31.712Z,95311.09
2022-10-20T03:54:35.941Z,95315.41
2022-10-20T03:55:37.504Z,95315.41
2022-10-20T03:56:39.036Z,95311.31
2022-10-20T03:57:40.521Z,95315.41
2022-10-20T03:58:42.138Z,95307.22
2022-10-20T03:59:43.665Z,95314.13
2022-10-20T04:00:45.890Z,95315.72
2022-10-20T04:01:47.847Z,95311.44
2022-10-20T04:02:49.640Z,95311.97
2022-10-20T04:03:51.194Z,95307.44
2022-10-20T04:04:52.707Z,95309.69
2022-10-20T04:05:54.301Z,95314.53
2022-10-20T04:06:55.851Z,95309.69
2022-10-20T04:07:57.416Z,95310.47
2022-10-20T04:08:59.061Z,95312.72
2022-10-20T04:10:02.329Z,95306.59
2022-10-20T04:11:04.235Z,95303.78
2022-10-20T04:12:05.902Z,95295.19
2022-10-20T04:13:09.231Z,95306.38
2022-10-20T04:14:10.937Z,95305.09
2022-10-20T04:15:12.530Z,95301.22
2022-10-20T04:16:14.155Z,95302.72
2022-10-20T04:17:15.703Z,95303.47
2022-10-20T04:18:17.378Z,95309.81
2022-10-20T04:19:18.935Z,95302.94
2022-10-20T04:20:20.540Z,95299.38
2022-10-20T04:21:22.654Z,95301.41
2022-10-20T04:22:24.182Z,95300.13
2022-10-20T04:23:25.755Z,95305.72
2022-10-20T04:24:27.327Z,95300.13
2022-10-20T04:25:28.817Z,95297.34
2022-10-20T04:26:30.381Z,95305.72
2022-10-20T04:27:31.905Z,95300.88
2022-10-20T04:28:33.431Z,95305.50
2022-10-20T04:29:35.093Z,95304.75
2022-10-20T04:30:38.953Z,95304.53
2022-10-20T04:31:41.753Z,95305.50
2022-10-20T04:32:44.733Z,95304.22
2022-10-20T04:33:46.214Z,95293.03
2022-10-20T04:34:47.714Z,95304.44
2022-10-20T04:36:55.640Z,95306.47
2022-10-20T04:37:57.180Z,95302.19
2022-10-20T04:38:58.674Z,95308.31
2022-10-20T04:40:00.245Z,95303.88
2022-10-20T04:41:07.084Z,95305.72
2022-10-20T04:42:08.652Z,95297.34
2022-10-20T04:43:10.183Z,95308.31
2022-10-20T04:44:11.752Z,95304.22
2022-10-20T04:45:13.341Z,95305.72
2022-10-20T04:46:14.852Z,95313.38
2022-10-20T04:47:16.422Z,95308.31
2022-10-20T04:48:17.941Z,95297.13
2022-10-20T04:49:19.502Z,95309.81
2022-10-20T04:50:21.064Z,95308.31
2022-10-20T04:51:22.718Z,95315.41
2022-10-20T04:52:24.278Z,95316.94
2022-10-20T04:53:25.794Z,95311.09
2022-10-20T04:54:27.393Z,95318.19
2022-10-20T04:55:28.957Z,95326.06
2022-10-20T04:56:30.579Z,95316.94
2022-10-20T04:57:32.210Z,95324.75
2022-10-20T04:58:35.082Z,95324.75
2022-10-20T04:59:36.662Z,95324.22
2022-10-20T05:00:38.528Z,95332.63
2022-10-20T05:01:40.108Z,95332.63
2022-10-20T05:02:41.672Z,95334.13
2022-10-20T05:03:43.598Z,95331.34
2022-10-20T05:04:45.159Z,95333.59
2022-10-20T05:05:48.132Z,95330.28
2022-10-20T05:06:50.139Z,95335.88
2022-10-20T05:07:51.696Z,95340.16
2022-10-20T05:08:55.463Z,95335.63
2022-10-20T05:09:57.048Z,95336.06
2022-10-20T05:11:00.763Z,95340.34
2022-10-20T05:12:02.359Z,95335.00
2022-10-20T05:13:03.968Z,95331.63
2022-10-20T05:14:05.521Z,95336.50
2022-10-20T05:15:07.563Z,95337.25
2022-10-20T05:16:09.942Z,95342.84
2022-10-20T05:17:11.451Z,95337.78
2022-10-20T05:18:12.974Z,95340.34
2022-10-20T05:19:14.518Z,95340.34
2022-10-20T05:20:16.089Z,95341.66
2022-10-20T05:21:20.514Z,95338.84
2022-10-20T05:22:22.295Z,95348.75
2022-10-20T05:23:24.291Z,95353.06
2022-10-20T05:24:29.853Z,95354.56
2022-10-20T05:25:36.520Z,95347.47
2022-10-20T05:26:38.579Z,95347.69
2022-10-20T05:27:40.178Z,95356.31
2022-10-20T05:28:47.540Z,95351.22
2022-10-20T05:29:49.682Z,95360.03
2022-10-20T05:30:51.207Z,95361.03
2022-10-20T05:31:52.714Z,95368.66
2022-10-20T05:32:54.244Z,95362.53
2022-10-20T05:33:56.836Z,95372.97
2022-10-20T05:34:58.356Z,95369.41
2022-10-20T05:35:59.959Z,95370.16
2022-10-20T05:37:01.501Z,95378.78
2022-10-20T05:38:03.047Z,95375.44
2022-10-20T05:39:04.870Z,95386.63
2022-10-20T05:40:07.312Z,95386.63
2022-10-20T05:41:10.602Z,95381.03
2022-10-20T05:42:12.150Z,95385.13
2022-10-20T05:43:15.860Z,95386.63
2022-10-20T05:44:17.567Z,95394.81
2022-10-20T05:45:19.158Z,95384.38
2022-10-20T05:46:20.820Z,95394.47
2022-10-20T05:47:22.361Z,95397.28
2022-10-20T05:48:23.938Z,95396.53
2022-10-20T05:49:25.553Z,95403.44
2022-10-20T05:50:27.098Z,95405.69
2022-10-20T05:51:31.335Z,95417.97
2022-10-20T05:52:34.862Z,95420.97
2022-10-20T05:53:36.955Z,95421.19
2022-10-20T05:54:38.551Z,95416.13
2022-10-20T05:55:40.290Z,95420.22
2022-10-20T05:56:42.101Z,95418.72
2022-10-20T05:57:43.672Z,95420.97
2022-10-20T05:58:45.970Z,95422.28
2022-10-20T05:59:47.490Z,95421.72
2022-10-20T06:00:52.835Z,95421.72
2022-10-20T06:01:54.361Z,95422.28
2022-10-20T06:02:56.186Z,95427.31
2022-10-20T06:03:59.739Z,95429.16
2022-10-20T06:05:01.263Z,95430.44
2022-10-20T06:06:03.884Z,95434.00
2022-10-20T06:07:11.553Z,95434.78
2022-10-20T06:08:13.115Z,95434.00
2022-10-20T06:09:14.717Z,95435.28
2022-10-20T06:10:16.289Z,95440.38
2022-10-20T06:11:21.972Z,95441.13
2022-10-20T06:12:23.596Z,95442.84
2022-10-20T06:13:25.114Z,95448.44
2022-10-20T06:14:26.674Z,95448.22
2022-10-20T06:15:28.200Z,95453.81
2022-10-20T06:16:29.944Z,95443.59
2022-10-20T06:17:31.478Z,95448.97
2022-10-20T06:18:33.386Z,95449.72
2022-10-20T06:19:34.901Z,95446.72
2022-10-20T06:20:36.418Z,95453.81
2022-10-20T06:21:38.244Z,95450.25
2022-10-20T06:22:40.051Z,95461.47
2022-10-20T06:23:41.679Z,95459.41
2022-10-20T06:24:43.222Z,95459.63
2022-10-20T06:25:44.822Z,95459.84
2022-10-20T06:26:46.722Z,95468.78
2022-10-20T06:27:48.279Z,95461.66
2022-10-20T06:28:52.724Z,95460.91
2022-10-20T06:29:54.804Z,95465.44
2022-10-20T06:30:56.294Z,95462.44
2022-10-20T06:31:57.882Z,95460.91
2022-10-20T06:32:59.391Z,95466.50
2022-10-20T06:34:03.876Z,95459.63
2022-10-20T06:35:05.843Z,95469.53
2022-10-20T06:36:08.299Z,95465.25
2022-10-20T06:37:10.683Z,95469.75
2022-10-20T06:38:12.202Z,95468.47
2022-10-20T06:39:17.450Z,95468.25
2022-10-20T06:40:19.083Z,95463.94
2022-10-20T06:41:20.702Z,95472.34
2022-10-20T06:42:22.213Z,95466.94
2022-10-20T06:43:23.759Z,95467.69
2022-10-20T06:44:25.419Z,95480.94
2022-10-20T06:45:26.971Z,95476.63
2022-10-20T06:46:31.048Z,95477.38
2022-10-20T06:47:32.580Z,95472.09
2022-10-20T06:48:35.684Z,95468.78
2022-10-20T06:49:37.292Z,95474.38
2022-10-20T06:50:38.845Z,95473.09
2022-10-20T06:51:41.173Z,95478.69
2022-10-20T06:52:42.706Z,95471.03
2022-10-20T06:53:46.715Z,95471.03
2022-10-20T06:54:48.461Z,95475.88
2022-10-20T06:55:57.309Z,95479.22
2022-10-20T06:56:58.806Z,95483.72
2022-10-20T06:58:00.540Z,95480.41
2022-10-20T06:59:02.545Z,95482.66
2022-10-20T07:00:05.017Z,95478.56
2022-10-20T07:01:11.094Z,95481.91
2022-10-20T07:02:12.985Z,95483.41
2022-10-20T07:03:14.601Z,95486.75
2022-10-20T07:04:16.337Z,95484.16
2022-10-20T07:05:17.934Z,95482.91
2022-10-20T07:06:28.503Z,95489.00
2022-10-20T07:07:30.047Z,95484.91
2022-10-20T07:08:33.819Z,95486.75
2022-10-20T07:09:35.349Z,95491.81
2022-10-20T07:10:36.913Z,95492.78
2022-10-20T07:11:38.671Z,95486.97
2022-10-20T07:12:40.206Z,95485.69
2022-10-20T07:13:43.123Z,95484.16
2022-10-20T07:14:44.615Z,95488.25
2022-10-20T07:15:46.371Z,95491.28
2022-10-20T07:16:47.938Z,95490.00
2022-10-20T07:17:49.767Z,95484.41
2022-10-20T07:18:52.306Z,95490.00
2022-10-20T07:19:54.134Z,95492.78
2022-10-20T07:21:00.934Z,95490.75
2022-10-20T07:22:03.066Z,95490.22
2022-10-20T07:23:04.618Z,95492.28
2022-10-20T07:24:07.188Z,95488.50
2022-10-20T07:25:09.314Z,95483.97
2022-10-20T07:26:25.562Z,95484.38
2022-10-20T07:27:27.078Z,95484.84
2022-10-20T07:28:29.199Z,95490.44
2022-10-20T07:29:30.827Z,95491.19
2022-10-20T07:30:32.572Z,95497.53
2022-10-20T07:31:40.031Z,95493.44
2022-10-20T07:32:41.565Z,95493.84
2022-10-20T07:33:43.366Z,95497.97
2022-10-20T07:34:44.893Z,95495.38
2022-10-20T07:35:46.467Z,95495.38
2022-10-20T07:36:49.314Z,95492.38
2022-10-20T07:37:50.843Z,95495.16
2022-10-20T07:38:54.011Z,95495.38
2022-10-20T07:39:55.521Z,95492.78
2022-10-20T07:41:02.734Z,95492.56
2022-10-20T07:42:04.351Z,95484.63
2022-10-20T07:43:05.962Z,95496.59
2022-10-20T07:44:07.825Z,95499.88
2022-10-20T07:45:09.719Z,95493.53
2022-10-20T07:46:12.754Z,95491.00
2022-10-20T07:47:14.338Z,95494.56
2022-10-20T07:48:15.870Z,95492.78
2022-10-20T07:49:42.981Z,95485.91
2022-10-20T07:50:40.262Z,95486.16
2022-10-20T07:51:41.777Z,95498.09
2022-10-20T07:52:43.334Z,95490.44
2022-10-20T07:53:46.109Z,95492.50
2022-10-20T07:54:47.683Z,95476.47
2022-10-20T07:55:49.242Z,95479.03
2022-10-20T07:56:51.158Z,95486.16
2022-10-20T07:57:52.710Z,95479.03
2022-10-20T07:58:55.031Z,95475.72
2022-10-20T07:59:56.619Z,95486.16
2022-10-20T08:00:58.160Z,95484.63
2022-10-20T08:02:00.359Z,95474.69
2022-10-20T08:03:02.106Z,95485.91
2022-10-20T08:04:04.091Z,95479.03
2022-10-20T08:05:05.847Z,95472.69
2022-10-20T08:06:07.720Z,95489.69
2022-10-20T08:07:09.396Z,95483.56
2022-10-20T08:08:10.924Z,95490.22
2022-10-20T08:09:12.593Z,95488.19
2022-10-20T08:10:14.124Z,95488.94
2022-10-20T08:11:15.729Z,95481.81
2022-10-20T08:12:17.390Z,95479.81
2022-10-20T08:13:18.930Z,95486.16
2022-10-20T08:14:20.417Z,95486.16
2022-10-20T08:15:21.948Z,95481.81
2022-10-20T08:16:42.607Z,95488.94
2022-10-20T08:17:44.122Z,95480.00
2022-10-20T08:20:07.992Z,95480.75
2022-10-20T08:21:15.042Z,95473.84
2022-10-20T08:22:19.210Z,95472.91
2022-10-20T08:23:20.734Z,95477.97
2022-10-20T08:24:22.369Z,95477.75
2022-10-20T08:25:24.387Z,95473.44
2022-10-20T08:26:27.434Z,95475.72
2022-10-20T08:27:28.959Z,95469.03
2022-10-20T08:28:30.496Z,95469.03
2022-10-20T08:29:32.058Z,95471.50
2022-10-20T08:30:34.061Z,95476.56
2022-10-20T08:31:35.695Z,95471.72
2022-10-20T08:32:37.419Z,95464.06
2022-10-20T08:33:40.983Z,95471.72
2022-10-20T08:34:42.943Z,95479.56
2022-10-20T08:35:44.474Z,95467.09
2022-10-20T08:36:46.037Z,95470.41
2022-10-20T08:37:48.161Z,95468.38
2022-10-20T08:38:49.699Z,95470.41
2022-10-20T08:39:51.225Z,95473.44
2022-10-20T08:40:52.783Z,95467.63
2022-10-20T08:42:08.171Z,95471.16
2022-10-20T08:43:17.854Z,95470.41
2022-10-20T08:44:29.156Z,95463.13
2022-10-20T08:45:34.726Z,95467.63
2022-10-20T08:46:40.999Z,95469.47
2022-10-20T08:47:43.941Z,95461.59
2022-10-20T08:48:47.667Z,95468.72
2022-10-20T08:49:49.475Z,95454.50
2022-10-20T08:50:52.921Z,95458.59
2022-10-20T08:51:54.709Z,95457.28
2022-10-20T08:53:00.716Z,95456.00
2022-10-20T08:54:02.908Z,95462.34
2022-10-20T08:55:05.744Z,95458.78
2022-10-20T08:56:12.857Z,95453.94
2022-10-20T08:57:27.342Z,95458.59
2022-10-20T08:58:28.890Z,95461.59
2022-10-20T08:59:37.249Z,95461.59
2022-10-20T09:00:42.183Z,95465.38
2022-10-20T09:01:43.830Z,95459.00
2022-10-20T09:02:47.430Z,95463.13
2022-10-20T09:03:54.879Z,95462.88
2022-10-20T09:04:59.642Z,95464.19
2022-10-20T09:06:13.384Z,95459.84
2022-10-20T09:07:34.940Z,95459.34
2022-10-20T09:08:39.435Z,95463.13
2022-10-20T09:09:41.365Z,95463.13
2022-10-20T09:10:51.183Z,95462.88
2022-10-20T09:12:00.934Z,95462.66
2022-10-20T09:13:06.575Z,95461.59
2022-10-20T09:14:12.459Z,95466.75
2022-10-20T09:15:17.193Z,95469.78
2022-10-20T09:16:42.099Z,95465.47
2022-10-20T09:17:54.418Z,95464.72
2022-10-20T09:18:58.703Z,95471.28
2022-10-20T09:20:01.590Z,95471.28
2022-10-20T09:21:12.552Z,95464.19
2022-10-20T09:22:15.828Z,95473.22
2022-10-20T09:23:39.402Z,95467.19
2022-10-20T09:24:43.534Z,95471.72
2022-10-20T09:25:45.548Z,95471.50
2022-10-20T09:27:04.999Z,95467.19
2022-10-20T09:28:20.856Z,95464.19
2022-10-20T09:29:34.000Z,95471.94
2022-10-20T09:30:35.943Z,95474.75
2022-10-20T09:31:57.705Z,95469.78
2022-10-20T09:32:59.852Z,95475.81
2022-10-20T09:34:02.084Z,95472.78
2022-10-20T09:35:12.940Z,95476.47
2022-10-20T09:36:18.902Z,95473.44
2022-10-20T09:37:20.618Z,95472.34
2022-10-20T09:38:26.590Z,95469.56
2022-10-20T09:39:32.090Z,95476.47
2022-10-20T09:40:33.848Z,95475.72
2022-10-20T09:41:36.037Z,95461.16
2022-10-20T09:42:42.866Z,95463.97
2022-10-20T09:44:06.213Z,95467.31
2022-10-20T09:45:19.318Z,95451.81
2022-10-20T09:46:24.489Z,95457.84
2022-10-20T09:47:27.540Z,95465.91
2022-10-20T09:48:35.168Z,95463.44
2022-10-20T09:49:38.755Z,95464.19
2022-10-20T09:50:40.842Z,95460.09
2022-10-20T09:51:47.798Z,95459.09
2022-10-20T09:52:49.528Z,95461.59
2022-10-20T09:53:57.612Z,95457.28
2022-10-20T09:55:16.302Z,95448.47
2022-10-20T09:56:34.823Z,95452.56
2022-10-20T09:57:36.384Z,95450.38
2022-10-20T09:58:39.370Z,95449.13
2022-10-20T09:59:46.126Z,95445.84
2022-10-20T10:00:57.499Z,95448.66
2022-10-20T10:02:15.182Z,95447.16
2022-10-20T10:03:22.510Z,95450.38
2022-10-20T10:04:38.691Z,95443.59
2022-10-20T10:05:40.238Z,95447.59
2022-10-20T10:06:43.362Z,95444.59
2022-10-20T10:07:45.298Z,95439.19
2022-10-20T10:08:47.615Z,95446.63
2022-10-20T10:10:02.463Z,95438.75
2022-10-20T10:11:19.906Z,95436.94
2022-10-20T10:12:24.160Z,95435.13
2022-10-20T10:13:28.738Z,95437.38
2022-10-20T10:14:33.284Z,95441.66
2022-10-20T10:15:37.491Z,95439.19
2022-10-20T10:16:41.822Z,95428.75
2022-10-20T10:17:43.528Z,95433.59
2022-10-20T10:18:54.578Z,95437.69
2022-10-20T10:19:56.526Z,95428.00
2022-10-20T10:21:09.048Z,95429.28
2022-10-20T10:22:13.120Z,95428.00
2022-10-20T10:23:23.801Z,95428.00
2022-10-20T10:24:28.387Z,95429.50
2022-10-20T10:25:30.304Z,95434.00
2022-10-20T10:26:38.038Z,95433.59
2022-10-20T10:27:39.640Z,95433.25
2022-10-20T10:28:41.942Z,95431.22
2022-10-20T10:29:43.476Z,95422.81
2022-10-20T10:30:47.019Z,95423.91
2022-10-20T10:32:15.623Z,95419.06
2022-10-20T10:33:29.620Z,95419.06
2022-10-20T10:34:42.618Z,95417.97
2022-10-20T10:35:44.681Z,95426.59
2022-10-20T10:36:46.271Z,95424.34
2022-10-20T10:37:48.554Z,95426.16
2022-10-20T10:38:50.121Z,95416.78
2022-10-20T10:39:51.690Z,95423.91
2022-10-20T10:41:08.175Z,95423.47
2022-10-20T10:42:34.152Z,95410.75
2022-10-20T10:43:47.904Z,95412.72
2022-10-20T10:44:50.558Z,95415.72
2022-10-20T10:45:56.754Z,95420.00
2022-10-20T10:47:23.539Z,95414.75
2022-10-20T10:48:28.041Z,95411.19
2022-10-20T10:49:42.455Z,95410.75
2022-10-20T10:51:00.858Z,95409.25
2022-10-20T10:52:17.721Z,95404.97
2022-10-20T10:53:47.170Z,95407.03
2022-10-20T10:55:05.871Z,95407.78
2022-10-20T10:56:28.610Z,95414.41
2022-10-20T10:57:38.311Z,95412.25
2022-10-20T10:58:45.644Z,95408.19
2022-10-20T10:59:51.669Z,95412.81
2022-10-20T11:01:15.662Z,95402.16
2022-10-20T11:02:35.766Z,95405.91
2022-10-20T11:04:08.324Z,95408.50
2022-10-20T11:05:41.214Z,95406.66
2022-10-20T11:06:59.240Z,95399.78
2022-10-20T11:08:31.600Z,95396.75
2022-10-20T11:10:13.550Z,95397.50
2022-10-20T11:11:24.032Z,95395.16
2022-10-20T11:12:41.026Z,95396.44
2022-10-20T11:14:07.178Z,95398.50
2022-10-20T11:15:33.432Z,95389.66
2022-10-20T11:16:40.201Z,95395.47
2022-10-20T11:18:00.007Z,95388.38
2022-10-20T11:19:16.734Z,95387.91
2022-10-20T11:20:41.090Z,95381.03
2022-10-20T11:21:57.472Z,95386.66
2022-10-20T11:23:04.970Z,95377.59
2022-10-20T11:24:32.675Z,95384.06
2022-10-20T11:25:44.960Z,95383.94
2022-10-20T11:26:52.077Z,95378.56
2022-10-20T11:27:56.510Z,95384.91
2022-10-20T11:28:59.847Z,95381.38
2022-10-20T11:30:08.269Z,95384.72
2022-10-20T11:31:20.634Z,95385.25
2022-10-20T11:32:55.403Z,95383.19
2022-10-20T11:34:05.800Z,95378.00
2022-10-20T11:35:16.090Z,95381.38
2022-10-20T11:36:21.849Z,95380.28
2022-10-20T11:37:26.376Z,95373.38
2022-10-20T11:39:00.298Z,95368.53
2022-10-20T11:40:30.630Z,95365.13
2022-10-20T11:41:45.830Z,95364.03
2022-10-20T11:42:57.232Z,95361.22
2022-10-20T11:44:04.732Z,95359.94
2022-10-20T11:45:24.194Z,95363.28
2022-10-20T11:46:36.947Z,95361.44
2022-10-20T11:47:43.195Z,95359.38
2022-10-20T11:48:50.097Z,95358.84
2022-10-20T11:49:52.495Z,95363.16
2022-10-20T11:51:17.132Z,95359.94
2022-10-20T11:52:34.003Z,95357.56
2022-10-20T11:53:54.260Z,95360.97
2022-10-20T11:55:06.488Z,95357.75
2022-10-20T11:56:19.873Z,95360.78
2022-10-20T11:57:44.726Z,95350.84
2022-10-20T11:59:17.499Z,95350.84
2022-10-20T12:00:36.918Z,95358.41
2022-10-20T12:02:05.020Z,95354.06
2022-10-20T12:03:06.599Z,95348.38
2022-10-20T12:04:33.903Z,95355.38
2022-10-20T12:05:35.363Z,95357.31
2022-10-20T12:06:48.761Z,95353.88
2022-10-20T12:08:28.835Z,95356.13
2022-10-20T12:09:52.256Z,95349.78
2022-10-20T12:11:01.022Z,95356.88
2022-10-20T12:12:10.323Z,95352.81
2022-10-20T12:13:22.814Z,95356.88
2022-10-20T12:14:31.902Z,95347.19
2022-10-20T12:15:33.872Z,95361.41
2022-10-20T12:16:59.607Z,95345.25
2022-10-20T12:18:07.209Z,95353.13
2022-10-20T12:19:17.880Z,95352.16
2022-10-20T12:20:22.456Z,95355.72
2022-10-20T12:21:58.141Z,95358.31
2022-10-20T12:23:01.650Z,95358.19
2022-10-20T12:24:04.110Z,95348.28
2022-10-20T12:25:05.551Z,95346.22
2022-10-20T12:26:30.036Z,95347.13
2022-10-20T12:27:32.823Z,95346.44
2022-10-20T12:28:41.241Z,95346.78
2022-10-20T12:29:42.695Z,95347.94
2022-10-20T12:30:44.521Z,95344.19
2022-10-20T12:32:24.526Z,95346.38
2022-10-20T12:33:50.903Z,95346.38
2022-10-20T12:34:54.897Z,95341.94
2022-10-20T12:36:12.734Z,95345.25
2022-10-20T12:37:24.227Z,95345.47
2022-10-20T12:38:27.071Z,95348.47
2022-10-20T12:39:29.936Z,95342.88
2022-10-20T12:40:40.782Z,95338.56
2022-10-20T12:41:54.240Z,95345.25
2022-10-20T12:42:56.418Z,95344.94
2022-10-20T12:44:05.100Z,95338.56
2022-10-20T12:45:09.020Z,95344.41
2022-10-20T12:46:16.658Z,95349.78
2022-10-20T12:47:26.753Z,95328.88
2022-10-20T12:48:28.398Z,95338.56
2022-10-20T12:49:33.914Z,95339.88
2022-10-20T12:50:46.881Z,95345.69
2022-10-20T12:51:54.281Z,95341.19
2022-10-20T12:53:08.617Z,95344.19
2022-10-20T12:54:22.766Z,95337.06
2022-10-20T12:55:31.655Z,95338.56
2022-10-20T12:56:39.651Z,95342.69
2022-10-20T12:57:42.414Z,95349.78
2022-10-20T12:59:24.008Z,95343.75